aviador You're here:

SARI Decoded Metar

IGUAZU FALLS in ARGENTINA
Report Time2018-01-19 18:00:00
UTC Time2018-01-19 18:57:24
Flight Rules mvfr MVFR
WindVRB at 03 kt
Visibility9999 m
Phenomena:N/A
Clouds:Broken 025 Hf
Few TCU 040 Hf
Overcast 090 Hf
Expected CloudBase > 2,400 ft AGL from Temp-Dew spread
Ceiling2,500 ft
Temp29°C (ISA +16)
Dew Point23°C (70% RH)
Heat Index32.7°C
QNH1014 hPa
Density Alt3,035 ft
Elevation886 ft
Report Wrong Elevation
Raw Report
SARI 191800Z VRB03KT 9999 BKN025 FEW040TCU OVC090 29/23 Q1014=

Extra information for SARI:More info

Metar Taf Metar & Taf Last 4 Metars F.Rules Stats Wind Profile Meteogram Temp Stats Airport Information Weather charts Add Link Nearby VenuesMetar ALERT Operation Metar Decoded Social comments